Time;durP1;ratioP1;P1;durP2;ratioP2;P2;SDS_P1;SDS_P2;PMS_P1;PMS_P2;Temp;Humidity;BMP_temperature;BMP_pressure;BME280_temperature;BME280_humidity;BME280_pressure;Samples;Min_cycle;Max_cycle;Signal;HPM_P1;HPM_P2
2021/06/05 00:01:07;;;;;;;12.87;11.57;;;17.90;82.60;;;;;;4989560;28;20228;-83
2021/06/05 00:03:35;;;;;;;13.67;11.57;;;17.90;82.50;;;;;;4995415;28;20431;-83
2021/06/05 00:06:04;;;;;;;15.00;11.60;;;17.90;82.60;;;;;;4998781;28;20210;-82
2021/06/05 00:08:33;;;;;;;12.90;10.97;;;17.80;82.60;;;;;;4993120;28;20259;-82
2021/06/05 00:11:05;;;;;;;12.40;10.30;;;17.80;82.50;;;;;;4996905;28;20215;-81
2021/06/05 00:13:35;;;;;;;13.23;11.70;;;17.70;82.60;;;;;;4992446;28;20203;-83
2021/06/05 00:16:07;;;;;;;12.63;11.30;;;17.70;82.60;;;;;;4995693;28;20278;-82
2021/06/05 00:18:36;;;;;;;13.47;10.97;;;17.70;82.60;;;;;;4988633;28;20841;-84
2021/06/05 00:21:04;;;;;;;13.50;11.13;;;17.70;83.00;;;;;;4994647;28;20231;-82
2021/06/05 00:23:33;;;;;;;11.70;10.60;;;17.70;82.70;;;;;;5011604;28;20206;-81
2021/06/05 00:26:02;;;;;;;11.03;9.83;;;17.70;82.80;;;;;;4990531;28;20214;-82
2021/06/05 00:28:30;;;;;;;15.83;10.60;;;17.80;82.70;;;;;;5004859;28;20222;-82
2021/06/05 00:30:58;;;;;;;11.70;10.33;;;17.70;82.90;;;;;;5013727;28;20249;-81
2021/06/05 00:33:28;;;;;;;11.53;10.10;;;17.80;82.60;;;;;;5012902;28;20192;-82
2021/06/05 00:35:56;;;;;;;11.10;9.60;;;17.80;82.90;;;;;;5017355;28;20670;-81
2021/06/05 00:38:25;;;;;;;10.57;9.57;;;17.80;82.90;;;;;;5014103;28;20235;-82
2021/06/05 00:40:56;;;;;;;10.90;9.90;;;17.80;82.80;;;;;;5006836;28;20447;-82
2021/06/05 00:43:27;;;;;;;11.27;9.53;;;17.70;83.50;;;;;;4995380;28;20575;-82
2021/06/05 00:45:56;;;;;;;10.40;9.20;;;17.70;83.60;;;;;;4996645;28;20208;-84
2021/06/05 00:48:24;;;;;;;11.37;9.93;;;17.60;84.70;;;;;;5003520;28;20230;-81
2021/06/05 00:50:54;;;;;;;13.53;10.00;;;17.60;85.50;;;;;;4996250;28;20274;-82
2021/06/05 00:53:25;;;;;;;12.73;10.50;;;17.50;86.80;;;;;;4989113;28;20240;-83
2021/06/05 00:55:57;;;;;;;10.77;9.73;;;17.40;88.80;;;;;;4995147;28;20762;-84
2021/06/05 00:58:28;;;;;;;10.33;9.30;;;17.20;88.70;;;;;;4997450;28;20211;-83
2021/06/05 01:00:58;;;;;;;9.60;8.70;;;17.30;87.40;;;;;;4978564;28;20232;-83
2021/06/05 01:03:28;;;;;;;10.53;9.20;;;17.10;86.10;;;;;;5007713;28;20210;-83
2021/06/05 01:06:00;;;;;;;12.23;9.50;;;17.00;85.90;;;;;;5009264;28;20195;-83
2021/06/05 01:08:34;;;;;;;12.03;9.97;;;17.00;87.10;;;;;;5003500;28;20650;-84
2021/06/05 01:11:12;;;;;;;12.60;10.23;;;17.00;88.50;;;;;;5008934;28;20271;-83
2021/06/05 01:13:47;;;;;;;13.90;10.23;;;16.90;88.90;;;;;;5002226;28;20201;-82
2021/06/05 01:16:18;;;;;;;12.50;11.07;;;16.60;90.70;;;;;;4999064;28;20199;-84
2021/06/05 01:18:51;;;;;;;12.97;10.60;;;16.60;90.90;;;;;;5002029;28;20195;-83
2021/06/05 01:21:45;;;;;;;14.37;11.63;;;16.60;92.00;;;;;;4992940;28;20251;-83
2021/06/05 01:24:28;;;;;;;12.03;10.50;;;16.50;92.40;;;;;;4994101;28;20223;-84
2021/06/05 01:27:02;;;;;;;13.17;11.77;;;16.60;91.10;;;;;;5000707;28;20234;-84
2021/06/05 01:29:34;;;;;;;12.97;11.23;;;16.60;93.20;;;;;;5004597;28;20192;-84
2021/06/05 01:32:06;;;;;;;12.67;11.37;;;16.60;92.90;;;;;;5016787;28;20195;-84
2021/06/05 01:34:39;;;;;;;13.03;11.67;;;16.50;94.50;;;;;;5004056;28;20200;-83
2021/06/05 01:37:09;;;;;;;14.63;13.13;;;16.60;97.30;;;;;;5013361;28;20423;-84
2021/06/05 01:39:40;;;;;;;15.03;13.27;;;16.40;99.90;;;;;;5006929;28;20208;-82
2021/06/05 01:42:13;;;;;;;13.40;12.00;;;16.30;99.90;;;;;;5008657;28;20250;-81
2021/06/05 01:44:43;;;;;;;14.80;12.77;;;16.20;99.90;;;;;;4999057;28;20834;-85
2021/06/05 01:47:14;;;;;;;12.30;10.67;;;16.00;99.90;;;;;;4999831;28;20196;-84
2021/06/05 01:49:42;;;;;;;12.63;11.33;;;16.00;96.40;;;;;;5003857;28;20226;-84
2021/06/05 01:52:21;;;;;;;12.63;11.30;;;15.90;96.00;;;;;;5001569;28;20219;-84
2021/06/05 01:54:59;;;;;;;14.93;11.93;;;16.00;96.20;;;;;;5004788;28;20208;-85
2021/06/05 01:57:32;;;;;;;12.77;10.87;;;15.90;97.60;;;;;;5000704;28;20203;-83
2021/06/05 02:00:00;;;;;;;14.40;10.63;;;15.90;96.70;;;;;;5011617;28;20204;-84
2021/06/05 02:02:28;;;;;;;12.97;11.50;;;16.00;96.70;;;;;;5010182;28;20320;-83
2021/06/05 02:04:56;;;;;;;12.47;10.43;;;15.90;95.70;;;;;;5007531;28;20223;-81
2021/06/05 02:07:24;;;;;;;12.13;10.87;;;15.90;94.60;;;;;;5010038;28;21005;-85
2021/06/05 02:09:53;;;;;;;11.87;9.80;;;16.00;95.10;;;;;;4990461;28;20609;-83
2021/06/05 02:12:26;;;;;;;13.93;11.53;;;16.00;95.70;;;;;;5002954;28;20300;-82
2021/06/05 02:14:59;;;;;;;12.03;10.53;;;16.00;97.80;;;;;;5008287;28;20208;-83
2021/06/05 02:17:28;;;;;;;13.73;11.47;;;15.90;97.30;;;;;;5004805;28;20196;-82
2021/06/05 02:19:59;;;;;;;14.83;10.97;;;15.80;97.60;;;;;;5004038;28;20219;-85
2021/06/05 02:22:30;;;;;;;11.43;10.33;;;15.90;97.40;;;;;;4995505;28;20243;-83
2021/06/05 02:25:02;;;;;;;11.40;10.20;;;15.80;97.30;;;;;;4998307;28;20302;-83
2021/06/05 02:27:31;;;;;;;12.40;11.20;;;15.80;97.40;;;;;;4995753;28;20192;-83
2021/06/05 02:30:01;;;;;;;14.10;11.03;;;15.80;97.20;;;;;;4999771;28;20200;-84
2021/06/05 02:32:30;;;;;;;12.20;10.47;;;15.80;97.60;;;;;;4994781;28;20196;-83
2021/06/05 02:35:00;;;;;;;11.57;10.47;;;15.70;98.20;;;;;;4996760;28;20203;-85
2021/06/05 02:37:30;;;;;;;12.60;10.43;;;15.70;97.90;;;;;;4995460;28;20677;-83
2021/06/05 02:40:01;;;;;;;11.17;9.43;;;15.70;98.60;;;;;;5009090;28;20196;-86
2021/06/05 02:42:29;;;;;;;11.70;10.60;;;15.80;95.90;;;;;;4994580;28;20227;-82
2021/06/05 02:44:58;;;;;;;10.73;9.63;;;15.80;96.70;;;;;;4996032;28;20265;-83
2021/06/05 02:47:29;;;;;;;11.17;9.70;;;15.90;97.80;;;;;;4994882;28;20562;-82
2021/06/05 02:50:00;;;;;;;16.40;10.17;;;15.80;96.30;;;;;;4996521;28;20247;-83
2021/06/05 02:52:31;;;;;;;11.77;10.67;;;15.80;97.00;;;;;;4996872;28;20211;-85
2021/06/05 02:55:04;;;;;;;11.50;9.80;;;15.70;99.90;;;;;;5018436;28;20342;-82
2021/06/05 02:57:33;;;;;;;10.80;9.67;;;15.60;98.70;;;;;;5013217;28;20204;-84
2021/06/05 03:00:24;;;;;;;11.93;10.57;;;15.80;99.40;;;;;;5014529;28;20207;-83
2021/06/05 03:02:54;;;;;;;11.40;10.20;;;15.60;99.90;;;;;;5016068;28;20228;-82
2021/06/05 03:05:24;;;;;;;10.90;9.80;;;15.60;99.90;;;;;;5007610;28;20689;-83
2021/06/05 03:07:53;;;;;;;12.10;10.53;;;15.60;99.90;;;;;;5008861;28;20181;-82
2021/06/05 03:10:24;;;;;;;11.57;10.47;;;15.60;99.90;;;;;;5015231;28;20199;-82
2021/06/05 03:12:52;;;;;;;12.17;11.00;;;15.60;99.90;;;;;;5018003;28;20212;-84
2021/06/05 03:15:21;;;;;;;12.87;11.10;;;15.60;99.90;;;;;;5018067;28;20196;-84
2021/06/05 03:17:49;;;;;;;11.90;10.80;;;15.60;99.90;;;;;;5003242;28;20462;-84
2021/06/05 03:20:24;;;;;;;12.23;11.03;;;15.50;99.90;;;;;;5002529;28;20244;-82
2021/06/05 03:22:54;;;;;;;12.63;11.30;;;15.50;99.90;;;;;;4994063;28;20222;-82
2021/06/05 03:25:23;;;;;;;12.67;11.17;;;15.60;99.90;;;;;;5006009;28;20196;-83
2021/06/05 03:27:53;;;;;;;12.20;11.00;;;15.50;99.90;;;;;;5005636;28;20795;-84
2021/06/05 03:30:23;;;;;;;13.10;11.67;;;15.50;99.90;;;;;;4999038;28;20279;-84
2021/06/05 03:32:51;;;;;;;12.67;11.40;;;15.50;99.90;;;;;;4996841;28;20269;-82
2021/06/05 03:35:21;;;;;;;12.40;11.23;;;15.50;99.90;;;;;;5005078;28;20754;-84
2021/06/05 03:37:49;;;;;;;14.03;12.00;;;15.50;99.90;;;;;;5004566;28;20200;-83
2021/06/05 03:40:20;;;;;;;13.37;11.90;;;15.60;99.90;;;;;;5006115;28;20203;-84
2021/06/05 03:42:48;;;;;;;14.90;11.30;;;15.50;99.90;;;;;;5000873;28;20247;-83
2021/06/05 03:45:16;;;;;;;11.93;10.83;;;15.40;99.90;;;;;;5002226;28;20207;-85
2021/06/05 03:47:46;;;;;;;13.57;11.07;;;15.50;99.90;;;;;;5007686;28;20293;-84
2021/06/05 03:50:16;;;;;;;13.07;11.77;;;15.50;99.90;;;;;;5000168;28;20235;-83
2021/06/05 03:52:47;;;;;;;16.03;11.67;;;15.60;99.90;;;;;;4993634;28;20265;-83
2021/06/05 03:55:15;;;;;;;13.07;11.40;;;15.60;99.90;;;;;;4998753;28;20207;-84
2021/06/05 03:57:43;;;;;;;12.00;10.90;;;15.70;99.90;;;;;;4995372;28;20294;-84
2021/06/05 04:00:15;;;;;;;13.53;11.67;;;15.70;99.90;;;;;;4999581;28;20241;-83
2021/06/05 04:02:43;;;;;;;12.57;11.33;;;15.80;99.90;;;;;;5000105;28;20231;-86
2021/06/05 04:05:12;;;;;;;14.53;11.37;;;15.80;99.90;;;;;;5006484;28;20211;-85
2021/06/05 04:07:41;;;;;;;12.73;11.47;;;15.80;99.90;;;;;;5001780;28;20274;-84
2021/06/05 04:10:12;;;;;;;12.87;11.63;;;15.90;99.90;;;;;;4994122;28;20951;-82
2021/06/05 04:12:40;;;;;;;12.37;11.17;;;15.90;99.90;;;;;;4992093;28;20204;-82
2021/06/05 04:15:12;;;;;;;12.73;11.43;;;15.90;99.90;;;;;;4998369;28;20279;-83
2021/06/05 04:17:40;;;;;;;12.30;11.00;;;16.00;99.90;;;;;;4998128;28;20671;-85
2021/06/05 04:20:13;;;;;;;12.50;11.17;;;16.00;99.90;;;;;;5000778;28;20212;-82
2021/06/05 04:22:42;;;;;;;12.50;11.03;;;16.10;99.90;;;;;;4996669;28;20231;-84
2021/06/05 04:25:13;;;;;;;12.87;11.43;;;16.00;99.90;;;;;;4995447;28;20822;-83
2021/06/05 04:27:41;;;;;;;13.60;11.87;;;16.00;99.90;;;;;;4997673;28;20257;-83
2021/06/05 04:30:11;;;;;;;12.70;11.43;;;16.00;99.90;;;;;;4991148;28;20204;-85
2021/06/05 04:32:40;;;;;;;13.60;11.27;;;16.00;99.90;;;;;;4992155;28;20694;-82
2021/06/05 04:35:10;;;;;;;12.20;11.00;;;15.90;99.90;;;;;;4991396;28;20208;-83
2021/06/05 04:37:38;;;;;;;12.40;11.13;;;16.00;99.90;;;;;;4988251;28;20243;-83
2021/06/05 04:40:08;;;;;;;13.40;12.10;;;16.10;99.90;;;;;;4991107;28;20204;-83
2021/06/05 04:42:38;;;;;;;13.40;11.37;;;16.10;99.90;;;;;;4989709;28;20290;-84
2021/06/05 04:45:08;;;;;;;13.40;12.00;;;16.30;99.90;;;;;;4995054;28;20205;-84
2021/06/05 04:47:36;;;;;;;12.93;11.63;;;16.20;99.90;;;;;;4991628;28;20784;-84
2021/06/05 04:50:06;;;;;;;12.53;11.23;;;16.30;99.90;;;;;;4989096;28;20261;-83
2021/06/05 04:52:35;;;;;;;11.97;10.67;;;16.20;99.90;;;;;;4992821;28;20208;-83
2021/06/05 04:55:04;;;;;;;15.27;11.10;;;16.20;99.90;;;;;;5005142;28;20556;-82
2021/06/05 04:57:52;;;;;;;14.60;10.77;;;16.20;99.90;;;;;;5003871;28;20207;-83
2021/06/05 05:00:26;;;;;;;13.03;11.67;;;16.20;99.50;;;;;;5001839;28;20289;-84
2021/06/05 05:02:54;;;;;;;12.90;10.77;;;16.30;99.40;;;;;;5001893;28;20456;-84
2021/06/05 05:05:27;;;;;;;14.63;10.57;;;16.40;98.10;;;;;;4995523;28;20732;-83
2021/06/05 05:07:56;;;;;;;12.27;11.07;;;16.40;97.10;;;;;;5005271;28;20207;-83
2021/06/05 05:10:27;;;;;;;11.63;10.53;;;16.50;97.90;;;;;;5007489;28;20211;-83
2021/06/05 05:12:57;;;;;;;11.27;10.27;;;16.70;98.50;;;;;;5012581;28;20210;-82
2021/06/05 05:15:26;;;;;;;12.23;11.03;;;16.80;97.30;;;;;;5002603;28;20203;-85
2021/06/05 05:17:54;;;;;;;11.70;10.63;;;16.80;94.70;;;;;;5002891;28;20938;-86
2021/06/05 05:20:26;;;;;;;11.93;10.70;;;16.80;95.00;;;;;;4999983;28;20207;-86
2021/06/05 05:22:54;;;;;;;11.00;10.00;;;16.80;94.60;;;;;;4996430;28;20223;-82
2021/06/05 05:25:23;;;;;;;12.10;10.90;;;16.70;94.90;;;;;;4995345;28;20433;-83
2021/06/05 05:27:51;;;;;;;13.57;11.63;;;16.60;97.20;;;;;;4994243;28;20289;-83
2021/06/05 05:30:25;;;;;;;12.30;11.20;;;16.60;98.20;;;;;;4993972;28;20208;-83
2021/06/05 05:32:55;;;;;;;12.77;11.50;;;16.60;99.00;;;;;;4998304;28;20586;-83
2021/06/05 05:35:24;;;;;;;12.70;11.40;;;16.70;98.10;;;;;;5000426;28;20203;-83
2021/06/05 05:37:52;;;;;;;13.03;11.70;;;16.80;97.00;;;;;;4996507;28;20212;-84
2021/06/05 05:40:22;;;;;;;12.20;10.90;;;16.70;96.70;;;;;;5002471;28;20205;-82
2021/06/05 05:42:50;;;;;;;12.50;11.30;;;16.80;97.80;;;;;;4997266;28;20277;-83
2021/06/05 05:45:18;;;;;;;11.67;10.57;;;16.80;96.80;;;;;;5004228;28;20207;-82
2021/06/05 05:47:47;;;;;;;12.47;11.17;;;16.80;96.10;;;;;;4999631;28;20295;-83
2021/06/05 05:50:18;;;;;;;12.40;11.10;;;16.90;96.90;;;;;;5001980;28;20215;-83
2021/06/05 05:52:47;;;;;;;11.90;10.70;;;16.90;96.80;;;;;;5002034;28;20208;-82
2021/06/05 05:55:16;;;;;;;11.57;10.57;;;17.10;96.80;;;;;;4994452;28;20245;-84
2021/06/05 05:57:46;;;;;;;12.73;10.30;;;17.10;95.60;;;;;;4998540;28;20652;-84
2021/06/05 06:00:17;;;;;;;12.47;11.23;;;17.10;94.00;;;;;;4993318;28;20450;-83
2021/06/05 06:02:46;;;;;;;11.97;10.77;;;17.10;95.20;;;;;;5002906;28;20235;-86
2021/06/05 06:05:15;;;;;;;13.90;10.37;;;17.30;95.10;;;;;;5013322;28;20226;-83
2021/06/05 06:07:43;;;;;;;11.23;10.03;;;17.40;93.70;;;;;;5002711;28;20204;-84
2021/06/05 06:10:15;;;;;;;10.50;9.40;;;17.50;93.00;;;;;;5008667;28;20208;-83
2021/06/05 06:12:43;;;;;;;10.17;9.20;;;17.50;92.60;;;;;;5002562;28;20200;-84
2021/06/05 06:15:13;;;;;;;9.63;8.80;;;17.60;92.10;;;;;;5012663;28;20203;-83
2021/06/05 06:17:41;;;;;;;10.53;9.47;;;17.60;92.10;;;;;;5001546;28;20810;-83
2021/06/05 06:20:13;;;;;;;9.50;8.53;;;17.70;91.30;;;;;;5000914;28;20243;-83
2021/06/05 06:22:43;;;;;;;9.77;8.87;;;17.70;91.30;;;;;;5000796;28;20796;-84
2021/06/05 06:25:13;;;;;;;9.97;8.97;;;18.00;91.20;;;;;;4996477;28;20263;-83
2021/06/05 06:27:41;;;;;;;10.70;9.73;;;18.20;90.30;;;;;;5000432;28;20295;-83
2021/06/05 06:30:10;;;;;;;10.53;9.37;;;18.20;90.60;;;;;;5003143;28;20658;-84
2021/06/05 06:32:38;;;;;;;11.10;9.90;;;18.20;91.50;;;;;;5000899;28;20200;-84
2021/06/05 06:35:07;;;;;;;11.40;10.20;;;18.20;91.10;;;;;;4996437;28;20196;-85
2021/06/05 06:37:35;;;;;;;10.90;9.80;;;18.30;91.10;;;;;;4998456;28;20480;-83
2021/06/05 06:40:06;;;;;;;10.47;9.40;;;18.50;91.60;;;;;;4994413;28;20203;-84
2021/06/05 06:42:34;;;;;;;11.43;10.33;;;18.70;90.60;;;;;;4998267;28;20669;-82
2021/06/05 06:45:03;;;;;;;11.33;10.23;;;18.60;90.90;;;;;;4996634;28;21044;-83
2021/06/05 06:47:31;;;;;;;11.33;10.03;;;18.70;90.40;;;;;;4998881;28;20314;-82
2021/06/05 06:49:59;;;;;;;10.57;9.57;;;18.80;90.40;;;;;;4995110;28;20267;-83
2021/06/05 06:52:27;;;;;;;10.20;9.10;;;18.80;89.90;;;;;;5011194;28;20656;-82
2021/06/05 06:54:55;;;;;;;10.07;9.07;;;19.00;90.00;;;;;;5017401;28;20188;-85
2021/06/05 06:57:25;;;;;;;10.47;9.00;;;18.80;90.20;;;;;;5011496;28;20196;-84
2021/06/05 06:59:53;;;;;;;10.17;9.20;;;18.90;90.50;;;;;;5004968;28;20211;-83
2021/06/05 07:02:21;;;;;;;9.63;8.70;;;19.10;90.20;;;;;;5002349;28;20210;-82
2021/06/05 07:04:50;;;;;;;8.63;7.73;;;19.20;89.00;;;;;;4994542;28;20250;-84
2021/06/05 07:07:19;;;;;;;8.43;7.77;;;19.30;86.80;;;;;;4992199;28;20200;-82
2021/06/05 07:09:47;;;;;;;9.17;8.17;;;19.30;86.40;;;;;;4991657;28;20211;-84
2021/06/05 07:12:14;;;;;;;8.23;7.47;;;19.60;85.60;;;;;;5010297;28;20192;-83
2021/06/05 07:14:44;;;;;;;7.97;7.03;;;20.00;84.80;;;;;;4998821;28;20266;-84
2021/06/05 07:17:11;;;;;;;9.03;8.03;;;20.40;84.30;;;;;;4992417;28;20287;-83
2021/06/05 07:19:39;;;;;;;9.00;8.20;;;20.50;83.60;;;;;;4993417;28;20275;-84
2021/06/05 07:22:08;;;;;;;8.33;7.50;;;20.70;84.10;;;;;;4992640;28;20208;-84
2021/06/05 07:24:36;;;;;;;9.00;7.60;;;20.60;84.00;;;;;;4998033;28;20223;-80
2021/06/05 07:27:04;;;;;;;9.97;9.10;;;20.20;84.00;;;;;;4989575;28;20258;-83
2021/06/05 07:29:33;;;;;;;9.40;8.50;;;19.70;85.40;;;;;;4986449;28;20200;-81
2021/06/05 07:32:05;;;;;;;9.80;8.90;;;19.30;86.30;;;;;;4992580;28;20222;-82
2021/06/05 07:34:34;;;;;;;8.70;7.87;;;19.20;86.50;;;;;;4994579;28;20207;-83
2021/06/05 07:37:05;;;;;;;8.60;7.80;;;19.20;86.20;;;;;;4973884;28;20643;-82
2021/06/05 07:39:34;;;;;;;9.80;8.83;;;18.90;86.40;;;;;;4991390;28;20204;-84
2021/06/05 07:42:03;;;;;;;8.50;7.70;;;18.60;87.50;;;;;;4989436;28;20449;-81
2021/06/05 07:44:32;;;;;;;8.93;8.03;;;18.50;87.00;;;;;;4994498;28;20227;-81
2021/06/05 07:47:03;;;;;;;8.83;8.03;;;18.30;87.20;;;;;;4991112;28;20242;-83
2021/06/05 07:49:33;;;;;;;9.27;8.47;;;18.20;87.30;;;;;;4999954;28;20215;-82
2021/06/05 07:52:05;;;;;;;9.30;8.47;;;18.00;87.40;;;;;;4993804;28;20481;-83
2021/06/05 07:54:34;;;;;;;9.73;8.83;;;18.00;88.20;;;;;;4998905;28;20204;-82
2021/06/05 07:57:02;;;;;;;9.93;9.10;;;18.00;89.40;;;;;;4971797;28;20333;-83
2021/06/05 07:59:33;;;;;;;9.60;8.70;;;18.00;89.60;;;;;;4993813;28;20200;-83
2021/06/05 08:02:03;;;;;;;10.07;9.17;;;18.00;89.10;;;;;;4999569;28;20211;-84
2021/06/05 08:04:32;;;;;;;9.63;8.73;;;17.90;90.00;;;;;;4998941;28;20689;-80
2021/06/05 08:07:00;;;;;;;9.80;8.77;;;17.90;90.30;;;;;;4999599;28;20262;-84
2021/06/05 08:09:29;;;;;;;9.63;8.60;;;18.00;90.00;;;;;;4994297;28;20214;-84
2021/06/05 08:11:58;;;;;;;8.97;8.17;;;18.10;90.20;;;;;;5002383;28;20492;-84
2021/06/05 08:14:26;;;;;;;9.73;8.73;;;18.40;89.70;;;;;;5018514;28;20205;-82
2021/06/05 08:16:56;;;;;;;8.67;7.97;;;18.40;88.70;;;;;;5005171;28;20285;-82
2021/06/05 08:19:25;;;;;;;9.50;8.60;;;18.50;88.60;;;;;;5001187;28;20291;-81
2021/06/05 08:21:54;;;;;;;9.17;8.30;;;18.50;88.10;;;;;;5007055;28;20208;-81
2021/06/05 08:24:22;;;;;;;10.00;9.03;;;18.60;88.40;;;;;;5003659;28;20224;-82
2021/06/05 08:26:52;;;;;;;9.37;8.47;;;18.70;88.80;;;;;;4998759;28;20416;-83
2021/06/05 08:29:20;;;;;;;8.73;7.93;;;18.80;89.20;;;;;;4996628;28;20223;-84
2021/06/05 08:31:49;;;;;;;9.93;9.03;;;18.70;88.40;;;;;;4991000;28;20199;-82
2021/06/05 08:34:18;;;;;;;9.57;8.67;;;18.80;89.50;;;;;;4993224;28;20585;-82
2021/06/05 08:36:48;;;;;;;10.27;9.33;;;18.60;89.00;;;;;;5000248;28;20200;-82
2021/06/05 08:39:16;;;;;;;9.67;8.87;;;18.70;90.30;;;;;;5003108;28;20230;-82
2021/06/05 08:41:50;;;;;;;9.80;8.77;;;18.70;89.80;;;;;;5010910;28;20210;-81
2021/06/05 08:44:28;;;;;;;9.90;9.00;;;18.70;89.40;;;;;;5009149;28;20493;-82
2021/06/05 08:47:00;;;;;;;10.17;9.17;;;18.60;89.20;;;;;;5011874;28;20266;-83
2021/06/05 08:49:32;;;;;;;10.43;9.47;;;18.40;89.90;;;;;;5013753;28;20231;-84
2021/06/05 08:52:07;;;;;;;10.30;9.30;;;18.60;89.30;;;;;;5003254;28;20275;-84
2021/06/05 08:54:46;;;;;;;9.93;9.13;;;18.70;89.20;;;;;;5012124;28;20412;-80
2021/06/05 08:57:29;;;;;;;11.10;10.10;;;18.80;89.00;;;;;;5012432;28;20318;-82
2021/06/05 09:00:02;;;;;;;11.93;10.73;;;18.90;89.70;;;;;;5018620;28;20187;-82
2021/06/05 09:02:32;;;;;;;11.60;10.50;;;19.20;90.00;;;;;;5017403;28;20221;-82
2021/06/05 09:05:04;;;;;;;11.60;10.50;;;19.40;89.10;;;;;;5009585;28;20220;-81
2021/06/05 09:07:34;;;;;;;11.17;9.80;;;19.40;88.40;;;;;;4990548;28;20231;-83
2021/06/05 09:10:04;;;;;;;11.07;10.00;;;19.50;88.40;;;;;;5005733;28;20207;-83
2021/06/05 09:12:31;;;;;;;11.47;10.27;;;19.30;88.30;;;;;;5008727;28;20200;-82
2021/06/05 09:15:00;;;;;;;10.53;9.53;;;19.20;89.10;;;;;;5008923;28;20307;-82
2021/06/05 09:17:36;;;;;;;10.40;9.40;;;19.10;88.90;;;;;;5005408;28;20209;-82
2021/06/05 09:20:11;;;;;;;10.10;9.20;;;18.90;88.30;;;;;;5001348;28;20685;-83
2021/06/05 09:22:42;;;;;;;11.60;10.50;;;18.90;89.00;;;;;;4990289;28;20207;-83
2021/06/05 09:25:30;;;;;;;11.47;10.13;;;19.10;89.10;;;;;;4988530;28;20439;-83
2021/06/05 09:28:21;;;;;;;11.23;10.13;;;19.30;89.20;;;;;;4986257;28;20208;-84
2021/06/05 09:30:50;;;;;;;10.93;10.03;;;19.60;88.30;;;;;;5015878;28;20362;-84
2021/06/05 09:33:32;;;;;;;10.53;9.53;;;19.90;87.90;;;;;;4994343;28;20377;-84
2021/06/05 09:36:19;;;;;;;10.47;9.50;;;20.00;87.60;;;;;;4989115;28;20212;-84
2021/06/05 09:38:51;;;;;;;9.97;9.13;;;20.00;87.00;;;;;;4995324;28;20203;-84
2021/06/05 09:41:25;;;;;;;10.13;9.17;;;20.00;86.50;;;;;;4993350;28;20422;-83
2021/06/05 09:43:54;;;;;;;9.93;9.13;;;20.40;86.90;;;;;;4999080;28;20233;-83
2021/06/05 09:46:27;;;;;;;9.70;8.70;;;20.20;86.40;;;;;;4996689;28;20274;-81
2021/06/05 09:49:14;;;;;;;9.07;8.27;;;19.90;86.00;;;;;;4996702;28;20666;-84
2021/06/05 09:51:44;;;;;;;9.00;8.20;;;19.80;86.50;;;;;;4994316;28;20199;-83
2021/06/05 09:54:29;;;;;;;9.93;8.93;;;19.80;86.60;;;;;;4999490;28;20203;-83
2021/06/05 09:57:19;;;;;;;10.57;9.57;;;20.00;86.20;;;;;;5000028;28;20231;-82
2021/06/05 10:00:01;;;;;;;9.60;8.17;;;20.30;86.10;;;;;;4991072;28;20433;-81
2021/06/05 10:02:30;;;;;;;8.90;8.10;;;20.20;85.70;;;;;;4994055;28;20199;-83
2021/06/05 10:05:09;;;;;;;7.80;7.10;;;20.20;85.40;;;;;;5007626;28;20224;-83
2021/06/05 10:07:37;;;;;;;8.02;7.22;;;20.50;85.30;;;;;;5011735;28;20525;-80
2021/06/05 10:10:14;;;;;;;7.43;6.75;;;20.80;84.50;;;;;;5004325;28;20210;-82
2021/06/05 10:12:44;;;;;;;8.57;7.78;;;20.90;84.20;;;;;;5009046;28;20254;-81
2021/06/05 10:15:17;;;;;;;7.68;6.97;;;21.20;84.20;;;;;;5004088;28;20187;-83
2021/06/05 10:17:52;;;;;;;8.07;7.30;;;21.00;83.60;;;;;;5012801;28;20232;-81
2021/06/05 10:20:29;;;;;;;8.50;7.70;;;21.40;84.20;;;;;;5001162;28;20216;-81
2021/06/05 10:22:59;;;;;;;8.82;8.05;;;21.90;84.00;;;;;;4996968;28;20204;-82
2021/06/05 10:25:33;;;;;;;8.25;7.53;;;22.10;83.50;;;;;;5005457;28;20227;-82
2021/06/05 10:28:05;;;;;;;8.63;7.80;;;22.10;84.00;;;;;;5010218;28;20334;-82
2021/06/05 10:30:43;;;;;;;7.32;6.72;;;22.00;83.60;;;;;;5000683;28;20215;-83
2021/06/05 10:33:18;;;;;;;9.57;7.93;;;22.00;83.00;;;;;;5008113;28;20199;-82
2021/06/05 10:35:46;;;;;;;5.78;5.15;;;21.90;82.70;;;;;;5002450;28;20195;-84
2021/06/05 10:38:22;;;;;;;6.40;5.80;;;21.80;81.00;;;;;;5005229;28;20207;-82
2021/06/05 10:40:53;;;;;;;6.43;5.93;;;21.60;82.00;;;;;;5007486;28;20210;-82
2021/06/05 10:43:24;;;;;;;7.63;6.45;;;21.80;82.20;;;;;;4996830;28;20200;-83
2021/06/05 10:45:56;;;;;;;7.07;6.47;;;21.70;82.00;;;;;;4995257;28;20257;-82
2021/06/05 10:48:28;;;;;;;7.00;6.30;;;21.70;82.40;;;;;;4969223;28;20286;-84
2021/06/05 10:51:08;;;;;;;6.78;6.18;;;21.70;82.50;;;;;;4992415;28;20214;-84
2021/06/05 10:53:39;;;;;;;7.18;6.50;;;21.70;81.90;;;;;;4990096;28;20226;-82
2021/06/05 10:56:14;;;;;;;7.78;6.95;;;21.50;82.00;;;;;;4999630;28;20203;-82
2021/06/05 10:58:47;;;;;;;8.02;7.25;;;21.30;82.20;;;;;;5000673;28;20318;-83
2021/06/05 11:01:46;;;;;;;7.57;6.80;;;21.20;82.10;;;;;;4999236;28;20263;-83
2021/06/05 11:04:43;;;;;;;7.30;6.65;;;21.30;82.10;;;;;;4996735;28;20714;-82
2021/06/05 11:07:31;;;;;;;7.43;6.82;;;21.40;82.00;;;;;;5011472;28;20203;-82
2021/06/05 11:10:01;;;;;;;6.80;6.20;;;21.50;82.20;;;;;;5009593;28;20208;-82
2021/06/05 11:13:03;;;;;;;6.80;6.10;;;21.50;81.30;;;;;;5011025;28;20211;-83
2021/06/05 11:15:59;;;;;;;7.50;6.80;;;21.50;81.70;;;;;;4938173;28;20547;-83
2021/06/05 11:18:31;;;;;;;7.40;6.72;;;21.40;82.10;;;;;;4931821;28;20313;-84
2021/06/05 11:21:24;;;;;;;7.90;7.18;;;21.20;82.10;;;;;;4932635;28;20225;-83
2021/06/05 11:24:19;;;;;;;7.30;6.70;;;21.20;81.90;;;;;;4936362;28;20241;-82
2021/06/05 11:26:49;;;;;;;7.07;6.38;;;21.20;81.50;;;;;;4928872;28;20248;-81
2021/06/05 11:29:50;;;;;;;8.18;6.18;;;21.30;81.70;;;;;;4930451;28;20241;-82
2021/06/05 11:32:47;;;;;;;6.63;6.13;;;21.60;81.80;;;;;;4896039;29;20401;-84
2021/06/05 11:35:37;;;;;;;5.38;4.97;;;21.90;81.30;;;;;;4931051;28;20426;-83
2021/06/05 11:38:07;;;;;;;5.28;4.78;;;21.70;80.00;;;;;;4932197;28;20205;-83
2021/06/05 11:40:58;;;;;;;5.30;4.90;;;21.50;80.20;;;;;;4935433;28;20220;-83
2021/06/05 11:43:43;;;;;;;5.55;5.05;;;21.50;79.70;;;;;;4933375;28;20300;-87
2021/06/05 11:46:44;;;;;;;5.38;4.97;;;21.90;80.20;;;;;;4952822;28;20240;-81
2021/06/05 11:49:50;;;;;;;5.03;4.63;;;22.10;79.60;;;;;;4988574;28;20203;-83
2021/06/05 11:52:39;;;;;;;5.45;4.90;;;22.20;79.50;;;;;;4991774;28;20806;-84
2021/06/05 11:55:24;;;;;;;5.05;4.63;;;22.20;79.90;;;;;;4995301;28;20608;-83
2021/06/05 11:58:02;;;;;;;5.70;5.30;;;22.30;79.50;;;;;;4998601;28;20273;-84
2021/06/05 12:00:33;;;;;;;4.88;4.47;;;22.40;79.50;;;;;;4997924;28;20260;-85
2021/06/05 12:03:05;;;;;;;4.88;4.47;;;22.80;78.90;;;;;;4996098;28;20238;-83
2021/06/05 12:05:40;;;;;;;5.05;4.63;;;23.20;77.90;;;;;;4992798;28;20376;-82
2021/06/05 12:08:24;;;;;;;5.22;4.82;;;23.30;77.10;;;;;;4991041;28;20280;-82
2021/06/05 12:10:54;;;;;;;5.25;4.85;;;23.10;77.30;;;;;;4994351;28;20211;-82
2021/06/05 12:13:30;;;;;;;5.18;4.85;;;23.10;77.10;;;;;;5000471;28;20582;-84
2021/06/05 12:16:07;;;;;;;4.80;4.40;;;23.50;77.30;;;;;;4996860;28;20208;-84
2021/06/05 12:18:36;;;;;;;5.72;5.05;;;23.80;76.90;;;;;;4990484;28;20269;-84
2021/06/05 12:21:26;;;;;;;4.90;4.50;;;23.70;76.50;;;;;;4997676;28;20305;-84
2021/06/05 12:23:55;;;;;;;5.35;4.95;;;23.20;76.80;;;;;;4991628;28;20199;-85
2021/06/05 12:26:25;;;;;;;6.07;5.47;;;23.30;78.10;;;;;;5002421;28;20278;-85
2021/06/05 12:29:08;;;;;;;5.97;5.45;;;23.50;76.70;;;;;;4989372;28;20664;-82
2021/06/05 12:31:41;;;;;;;6.22;5.43;;;23.60;77.40;;;;;;4993707;28;20397;-81
2021/06/05 12:34:11;;;;;;;6.57;5.68;;;23.80;77.70;;;;;;5001870;28;20254;-82
2021/06/05 12:36:42;;;;;;;5.57;5.18;;;23.40;78.40;;;;;;5009261;28;20200;-83
2021/06/05 12:39:15;;;;;;;5.20;4.80;;;22.80;78.60;;;;;;5001169;28;20265;-84
2021/06/05 12:41:45;;;;;;;5.35;4.95;;;22.40;78.80;;;;;;5000731;28;20227;-84
2021/06/05 12:44:20;;;;;;;5.60;5.10;;;22.30;79.40;;;;;;4991488;28;20200;-84
2021/06/05 12:46:48;;;;;;;5.32;4.70;;;22.40;79.00;;;;;;4995084;28;20238;-83
2021/06/05 12:49:22;;;;;;;5.63;5.13;;;22.50;79.90;;;;;;4992382;28;20200;-83
2021/06/05 12:51:54;;;;;;;5.55;5.05;;;22.30;79.70;;;;;;4992986;28;20215;-84
2021/06/05 12:54:28;;;;;;;5.60;5.00;;;22.20;79.10;;;;;;4987201;28;20564;-83
2021/06/05 12:56:59;;;;;;;5.45;5.03;;;22.30;79.80;;;;;;4994039;28;20222;-83
2021/06/05 12:59:35;;;;;;;7.18;6.47;;;22.10;79.30;;;;;;4989202;28;20575;-84
2021/06/05 13:02:19;;;;;;;6.55;5.95;;;21.80;79.20;;;;;;4991530;28;20195;-84